createdAt,value
2023-05-19T00:01:24.871Z,12.95
2023-05-19T00:04:29.283Z,13.00
2023-05-19T00:07:33.772Z,12.93
2023-05-19T00:10:38.877Z,12.87
2023-05-19T00:13:45.045Z,12.89
2023-05-19T00:16:49.522Z,12.83
2023-05-19T00:19:54.745Z,12.81
2023-05-19T00:22:58.526Z,12.76
2023-05-19T00:26:02.597Z,12.73
2023-05-19T00:29:06.733Z,12.76
2023-05-19T00:32:11.121Z,12.72
2023-05-19T00:35:15.941Z,12.68
2023-05-19T00:38:19.693Z,12.62
2023-05-19T00:41:24.025Z,12.57
2023-05-19T00:44:27.962Z,12.52
2023-05-19T00:47:32.278Z,12.47
2023-05-19T00:50:36.466Z,12.45
2023-05-19T00:53:40.824Z,12.43
2023-05-19T00:56:44.423Z,12.33
2023-05-19T00:59:49.032Z,12.33
2023-05-19T01:02:54.324Z,12.28
2023-05-19T01:06:01.683Z,12.22
2023-05-19T01:09:05.624Z,12.24
2023-05-19T01:12:09.570Z,12.20
2023-05-19T01:15:14.146Z,12.23
2023-05-19T01:18:38.663Z,12.20
2023-05-19T01:22:06.790Z,12.13
2023-05-19T01:25:32.639Z,12.13
2023-05-19T01:28:42.504Z,12.10
2023-05-19T01:31:50.395Z,12.08
2023-05-19T01:34:56.897Z,12.09
2023-05-19T01:38:03.306Z,12.11
2023-05-19T01:41:08.261Z,12.12
2023-05-19T01:44:12.311Z,11.98
2023-05-19T01:47:16.745Z,11.94
2023-05-19T01:50:21.827Z,11.95
2023-05-19T01:53:26.189Z,11.95
2023-05-19T01:56:49.479Z,11.99
2023-05-19T02:00:20.566Z,12.00
2023-05-19T02:03:53.962Z,11.94
2023-05-19T02:07:15.658Z,11.93
2023-05-19T02:10:26.389Z,11.91
2023-05-19T02:13:36.719Z,11.83
2023-05-19T02:16:45.787Z,11.77
2023-05-19T02:19:49.560Z,11.71
2023-05-19T02:22:53.744Z,11.67
2023-05-19T02:25:58.204Z,11.61
2023-05-19T02:29:02.258Z,11.64
2023-05-19T02:32:06.556Z,11.54
2023-05-19T02:35:10.678Z,11.58
2023-05-19T02:38:14.704Z,11.48
2023-05-19T02:41:18.617Z,11.52
2023-05-19T02:44:22.359Z,11.53
2023-05-19T02:47:26.564Z,11.54
2023-05-19T02:50:31.142Z,11.56
2023-05-19T02:53:36.242Z,11.56
2023-05-19T02:56:40.136Z,11.52
2023-05-19T02:59:44.272Z,11.44
2023-05-19T03:02:48.571Z,11.43
2023-05-19T03:05:53.748Z,11.40
2023-05-19T03:08:58.648Z,11.35
2023-05-19T03:12:04.014Z,11.31
2023-05-19T03:15:08.620Z,11.22
2023-05-19T03:18:12.761Z,11.23
2023-05-19T03:21:16.874Z,11.22
2023-05-19T03:24:20.936Z,11.26
2023-05-19T03:27:25.214Z,11.26
2023-05-19T03:30:29.583Z,11.19
2023-05-19T03:33:33.652Z,11.14
2023-05-19T03:36:39.514Z,11.21
2023-05-19T03:39:43.670Z,11.13
2023-05-19T03:42:47.506Z,11.10
2023-05-19T03:45:51.523Z,11.07
2023-05-19T03:48:55.524Z,11.10
2023-05-19T03:51:59.584Z,11.04
2023-05-19T03:55:03.780Z,10.97
2023-05-19T03:58:08.122Z,10.99
2023-05-19T04:01:11.959Z,10.97
2023-05-19T04:04:16.147Z,11.03
2023-05-19T04:07:20.201Z,11.03
2023-05-19T04:10:24.482Z,11.06
2023-05-19T04:13:28.495Z,11.09
2023-05-19T04:16:32.819Z,11.14
2023-05-19T04:19:36.531Z,11.16
2023-05-19T04:22:40.449Z,11.21
2023-05-19T04:25:44.622Z,11.18
2023-05-19T04:28:49.065Z,11.21
2023-05-19T04:31:53.140Z,11.28
2023-05-19T04:34:58.834Z,11.29
2023-05-19T04:38:03.111Z,11.35
2023-05-19T04:41:10.767Z,11.40
2023-05-19T04:44:18.233Z,11.43
2023-05-19T04:47:27.954Z,11.42
2023-05-19T04:50:32.870Z,11.33
2023-05-19T04:53:36.963Z,11.28
2023-05-19T04:56:42.032Z,11.24
2023-05-19T04:59:46.347Z,11.22
2023-05-19T05:02:50.833Z,11.40
2023-05-19T05:05:54.708Z,11.35
2023-05-19T05:08:59.889Z,11.30
2023-05-19T05:12:04.305Z,11.29
2023-05-19T05:15:09.098Z,11.23
2023-05-19T05:18:15.106Z,11.30
2023-05-19T05:21:19.520Z,11.34
2023-05-19T05:24:24.022Z,11.52
2023-05-19T05:27:27.988Z,11.64
2023-05-19T05:30:33.972Z,11.84
2023-05-19T05:33:38.835Z,11.97
2023-05-19T05:36:42.774Z,11.98
2023-05-19T05:39:46.699Z,12.04
2023-05-19T05:42:50.856Z,11.99
2023-05-19T05:45:55.601Z,12.10
2023-05-19T05:48:59.938Z,12.38
2023-05-19T05:52:06.602Z,12.52
2023-05-19T05:55:11.464Z,12.72
2023-05-19T05:58:16.889Z,12.82
2023-05-19T06:01:21.926Z,12.96
2023-05-19T06:04:26.089Z,13.08
2023-05-19T06:07:29.927Z,13.13
2023-05-19T06:10:35.605Z,13.17
2023-05-19T06:13:41.416Z,13.29
2023-05-19T06:16:45.731Z,13.29
2023-05-19T06:19:50.206Z,13.44
2023-05-19T06:22:54.438Z,13.61
2023-05-19T06:25:58.685Z,13.73
2023-05-19T06:29:02.730Z,13.81
2023-05-19T06:32:06.979Z,13.91
2023-05-19T06:35:11.182Z,13.86
2023-05-19T06:38:15.017Z,13.79
2023-05-19T06:41:19.209Z,14.01
2023-05-19T06:44:23.348Z,13.98
2023-05-19T06:47:27.544Z,14.10
2023-05-19T06:50:31.915Z,14.23
2023-05-19T06:53:36.755Z,14.52
2023-05-19T06:56:40.689Z,14.68
2023-05-19T06:59:46.548Z,14.55
2023-05-19T07:02:50.992Z,14.79
2023-05-19T07:05:55.561Z,14.96
2023-05-19T07:08:59.693Z,15.17
2023-05-19T07:12:04.212Z,15.17
2023-05-19T07:15:08.696Z,15.01
2023-05-19T07:18:12.840Z,15.08
2023-05-19T07:21:17.334Z,15.25
2023-05-19T07:24:22.159Z,15.55
2023-05-19T07:27:26.009Z,15.53
2023-05-19T07:30:29.860Z,15.73
2023-05-19T07:33:34.008Z,15.95
2023-05-19T07:36:38.389Z,16.23
2023-05-19T07:39:42.707Z,16.28
2023-05-19T07:42:46.600Z,16.66
2023-05-19T07:45:50.819Z,16.95
2023-05-19T07:48:55.025Z,17.28
2023-05-19T07:51:59.263Z,17.35
2023-05-19T07:55:03.597Z,17.66
2023-05-19T07:58:07.999Z,18.35
2023-05-19T08:01:12.116Z,19.28
2023-05-19T08:04:16.445Z,19.55
2023-05-19T08:07:20.645Z,19.97
2023-05-19T08:10:24.798Z,21.00
2023-05-19T08:13:29.127Z,20.28
2023-05-19T08:16:33.343Z,20.10
2023-05-19T08:19:37.554Z,20.67
2023-05-19T08:22:41.656Z,20.37
2023-05-19T08:25:45.854Z,20.36
2023-05-19T08:28:49.603Z,19.88
2023-05-19T08:31:53.819Z,18.52
2023-05-19T08:34:58.055Z,18.28
2023-05-19T08:38:02.025Z,18.97
2023-05-19T08:41:06.192Z,19.33
2023-05-19T08:44:10.340Z,20.33
2023-05-19T08:47:15.360Z,20.41
2023-05-19T08:50:28.959Z,19.08
2023-05-19T08:53:37.852Z,19.47
2023-05-19T08:56:44.719Z,19.13
2023-05-19T08:59:51.164Z,18.55
2023-05-19T09:03:05.999Z,18.18
2023-05-19T09:06:19.004Z,17.93
2023-05-19T09:09:23.431Z,18.30
2023-05-19T09:12:28.092Z,18.26
2023-05-19T09:15:34.075Z,18.23
2023-05-19T09:18:39.917Z,18.03
2023-05-19T09:21:45.661Z,17.88
2023-05-19T09:24:51.544Z,18.30
2023-05-19T09:27:55.631Z,18.76
2023-05-19T09:31:01.130Z,18.49
2023-05-19T09:34:12.099Z,18.27
2023-05-19T09:37:16.308Z,18.12
2023-05-19T09:40:20.620Z,17.84
2023-05-19T09:43:27.951Z,17.45
2023-05-19T09:46:33.587Z,17.33
2023-05-19T09:49:47.317Z,17.25
2023-05-19T09:52:52.030Z,17.46
2023-05-19T09:56:00.013Z,17.91
2023-05-19T09:59:04.115Z,18.62
2023-05-19T10:02:15.744Z,18.79
2023-05-19T10:05:20.907Z,18.44
2023-05-19T10:08:27.265Z,18.46
2023-05-19T10:11:32.030Z,18.68
2023-05-19T10:14:36.236Z,18.73
2023-05-19T10:17:41.529Z,18.16
2023-05-19T10:20:46.639Z,18.15
2023-05-19T10:23:50.992Z,17.99
2023-05-19T10:27:03.618Z,17.72
2023-05-19T10:30:31.789Z,17.69
2023-05-19T10:33:52.714Z,17.63
2023-05-19T10:37:09.310Z,17.51
2023-05-19T10:40:29.209Z,17.73
2023-05-19T10:43:58.293Z,17.74
2023-05-19T10:47:06.016Z,18.00
2023-05-19T10:50:11.593Z,18.10
2023-05-19T10:53:22.424Z,18.34
2023-05-19T10:56:36.533Z,18.42
2023-05-19T10:59:40.898Z,18.70
2023-05-19T11:02:45.119Z,18.92
2023-05-19T11:05:52.155Z,19.08
2023-05-19T11:09:11.686Z,18.89
2023-05-19T11:12:21.829Z,18.75
2023-05-19T11:15:27.634Z,18.36
2023-05-19T11:18:32.050Z,18.45
2023-05-19T11:21:49.015Z,18.50
2023-05-19T11:24:57.242Z,18.84
2023-05-19T11:28:03.868Z,18.68
2023-05-19T11:31:10.354Z,18.25
2023-05-19T11:34:15.631Z,18.39
2023-05-19T11:37:19.666Z,18.41
2023-05-19T11:40:25.138Z,18.63
2023-05-19T11:43:29.446Z,18.85
2023-05-19T11:46:33.507Z,18.79
2023-05-19T11:49:37.607Z,18.83
2023-05-19T11:52:44.950Z,18.80
2023-05-19T11:55:49.607Z,18.78
2023-05-19T11:58:54.600Z,18.95
2023-05-19T12:02:03.364Z,18.92
2023-05-19T12:05:18.571Z,18.96
2023-05-19T12:08:22.978Z,19.23
2023-05-19T12:11:28.705Z,19.19
2023-05-19T12:14:34.441Z,19.10
2023-05-19T12:17:38.979Z,19.00
2023-05-19T12:20:43.637Z,19.04
2023-05-19T12:23:47.961Z,19.01
2023-05-19T12:26:52.064Z,18.71
2023-05-19T12:29:57.377Z,18.79
2023-05-19T12:33:01.922Z,18.81
2023-05-19T12:36:07.672Z,18.72
2023-05-19T12:39:12.769Z,19.05
2023-05-19T12:42:17.306Z,19.04
2023-05-19T12:45:23.046Z,18.91
2023-05-19T12:48:28.591Z,18.90
2023-05-19T12:51:32.847Z,19.07
2023-05-19T12:54:37.247Z,19.25
2023-05-19T12:57:44.204Z,19.41
2023-05-19T13:00:49.815Z,19.36
2023-05-19T13:03:54.393Z,19.22
2023-05-19T13:06:58.493Z,18.99
2023-05-19T13:10:04.857Z,19.03
2023-05-19T13:13:09.737Z,18.91
2023-05-19T13:16:13.832Z,18.95
2023-05-19T13:19:25.511Z,18.98
2023-05-19T13:22:30.728Z,18.93
2023-05-19T13:25:35.302Z,18.90
2023-05-19T13:28:39.131Z,19.33
2023-05-19T13:31:42.954Z,19.50
2023-05-19T13:34:46.942Z,19.39
2023-05-19T13:37:51.252Z,19.18
2023-05-19T13:40:55.333Z,19.34
2023-05-19T13:44:01.722Z,19.49
2023-05-19T13:47:05.631Z,19.29
2023-05-19T13:50:09.731Z,19.06
2023-05-19T13:53:14.119Z,18.87
2023-05-19T13:56:18.515Z,19.02
2023-05-19T13:59:22.467Z,19.22
2023-05-19T14:02:26.443Z,19.45
2023-05-19T14:05:31.117Z,19.19
2023-05-19T14:08:36.329Z,18.84
2023-05-19T14:11:40.190Z,18.65
2023-05-19T14:14:44.726Z,18.81
2023-05-19T14:17:49.077Z,19.09
2023-05-19T14:20:53.302Z,19.20
2023-05-19T14:23:57.876Z,19.07
2023-05-19T14:27:02.151Z,19.12
2023-05-19T14:30:07.189Z,19.22
2023-05-19T14:33:11.269Z,18.89
2023-05-19T14:36:15.192Z,18.43
2023-05-19T14:39:19.411Z,18.33
2023-05-19T14:42:24.679Z,18.31
2023-05-19T14:45:29.087Z,18.23
2023-05-19T14:48:32.768Z,18.18
2023-05-19T14:51:36.862Z,18.28
2023-05-19T14:54:40.985Z,18.33
2023-05-19T14:57:47.834Z,18.34
2023-05-19T15:00:51.785Z,18.44
2023-05-19T15:03:55.769Z,18.52
2023-05-19T15:10:10.592Z,18.23
2023-05-19T15:13:14.501Z,18.14
2023-05-19T15:16:18.617Z,18.18
2023-05-19T15:19:22.892Z,18.05
2023-05-19T15:22:27.022Z,18.05
2023-05-19T15:25:31.455Z,18.11
2023-05-19T15:28:35.188Z,18.17
2023-05-19T15:31:39.458Z,18.34
2023-05-19T15:34:43.744Z,18.40
2023-05-19T15:37:47.910Z,18.31
2023-05-19T15:40:51.890Z,18.32
2023-05-19T15:43:55.896Z,18.22
2023-05-19T15:47:00.346Z,18.05
2023-05-19T15:50:04.844Z,18.19
2023-05-19T15:53:09.076Z,18.19
2023-05-19T15:56:15.984Z,18.13
2023-05-19T15:59:19.690Z,17.93
2023-05-19T16:02:23.782Z,17.86
2023-05-19T16:05:28.162Z,17.79
2023-05-19T16:08:32.288Z,17.80
2023-05-19T16:11:36.120Z,17.73
2023-05-19T16:14:40.486Z,17.66
2023-05-19T16:17:44.703Z,17.52
2023-05-19T16:20:50.353Z,17.33
2023-05-19T16:23:54.271Z,17.38
2023-05-19T16:26:58.151Z,17.35
2023-05-19T16:30:03.200Z,17.31
2023-05-19T16:33:07.710Z,17.38
2023-05-19T16:36:11.749Z,17.33
2023-05-19T16:39:15.745Z,17.40
2023-05-19T16:42:19.403Z,17.33
2023-05-19T16:45:23.285Z,17.40
2023-05-19T16:48:27.187Z,17.42
2023-05-19T16:51:31.197Z,17.57
2023-05-19T16:54:35.289Z,17.39
2023-05-19T16:57:39.323Z,17.23
2023-05-19T17:00:43.738Z,17.22
2023-05-19T17:03:47.987Z,17.18
2023-05-19T17:06:52.376Z,17.11
2023-05-19T17:09:56.482Z,17.09
2023-05-19T17:13:00.283Z,16.96
2023-05-19T17:16:04.761Z,17.01
2023-05-19T17:19:08.577Z,16.84
2023-05-19T17:22:13.002Z,16.79
2023-05-19T17:25:17.122Z,16.80
2023-05-19T17:28:21.437Z,16.72
2023-05-19T17:31:25.964Z,16.69
2023-05-19T17:34:30.641Z,16.67
2023-05-19T17:37:34.683Z,16.61
2023-05-19T17:40:40.732Z,16.71
2023-05-19T17:43:46.158Z,16.57
2023-05-19T17:46:50.484Z,16.56
2023-05-19T17:49:54.546Z,16.57
2023-05-19T17:52:58.777Z,16.56
2023-05-19T17:56:04.527Z,16.44
2023-05-19T17:59:08.695Z,16.39
2023-05-19T18:02:13.044Z,16.39
2023-05-19T18:05:18.147Z,16.41
2023-05-19T18:08:22.666Z,16.25
2023-05-19T18:11:26.880Z,16.25
2023-05-19T18:14:30.994Z,16.14
2023-05-19T18:17:35.080Z,16.15
2023-05-19T18:20:41.136Z,16.15
2023-05-19T18:23:46.049Z,16.13
2023-05-19T18:26:50.078Z,15.99
2023-05-19T18:29:54.255Z,15.96
2023-05-19T18:33:02.037Z,15.91
2023-05-19T18:36:06.694Z,15.94
2023-05-19T18:39:10.708Z,15.92
2023-05-19T18:42:14.741Z,15.91
2023-05-19T18:45:18.979Z,15.88
2023-05-19T18:48:24.155Z,15.82
2023-05-19T18:51:27.842Z,15.78
2023-05-19T18:54:32.576Z,15.82
2023-05-19T18:57:36.752Z,15.84
2023-05-19T19:00:40.728Z,15.69
2023-05-19T19:03:46.690Z,15.65
2023-05-19T19:06:52.230Z,15.66
2023-05-19T19:09:56.243Z,15.60
2023-05-19T19:13:00.404Z,15.53
2023-05-19T19:16:04.443Z,15.48
2023-05-19T19:19:08.705Z,15.40
2023-05-19T19:22:12.867Z,15.32
2023-05-19T19:25:16.898Z,15.36
2023-05-19T19:28:23.531Z,15.33
2023-05-19T19:31:30.732Z,15.24
2023-05-19T19:34:35.406Z,15.31
2023-05-19T19:37:39.772Z,15.33
2023-05-19T19:40:43.759Z,15.24
2023-05-19T19:43:47.752Z,15.20
2023-05-19T19:46:51.768Z,15.11
2023-05-19T19:49:56.344Z,15.15
2023-05-19T19:53:00.845Z,15.15
2023-05-19T19:56:05.912Z,15.06
2023-05-19T19:59:09.668Z,14.98
2023-05-19T20:02:14.201Z,14.85
2023-05-19T20:05:18.694Z,14.90
2023-05-19T20:08:24.122Z,14.83
2023-05-19T20:11:28.014Z,14.82
2023-05-19T20:14:33.004Z,14.75
2023-05-19T20:17:36.968Z,14.73
2023-05-19T20:20:42.035Z,14.59
2023-05-19T20:23:46.131Z,14.63
2023-05-19T20:26:49.781Z,14.61
2023-05-19T20:29:53.671Z,14.57
2023-05-19T20:32:58.282Z,14.49
2023-05-19T20:36:02.606Z,14.41
2023-05-19T20:39:07.032Z,14.34
2023-05-19T20:42:11.216Z,14.34
2023-05-19T20:45:15.702Z,14.28
2023-05-19T20:48:20.143Z,14.22
2023-05-19T20:51:25.231Z,14.21
2023-05-19T20:54:28.887Z,14.24
2023-05-19T20:57:32.603Z,14.19
2023-05-19T21:00:37.223Z,14.10
2023-05-19T21:03:41.730Z,14.12
2023-05-19T21:06:46.208Z,14.04
2023-05-19T21:09:51.395Z,14.06
2023-05-19T21:12:56.556Z,14.04
2023-05-19T21:16:00.816Z,13.99
2023-05-19T21:19:06.571Z,13.96
2023-05-19T21:22:11.008Z,13.93
2023-05-19T21:25:17.022Z,13.89
2023-05-19T21:28:21.319Z,13.82
2023-05-19T21:31:25.457Z,13.83
2023-05-19T21:34:29.420Z,13.75
2023-05-19T21:37:33.362Z,13.68
2023-05-19T21:40:37.888Z,13.72
2023-05-19T21:43:45.151Z,13.65
2023-05-19T21:46:49.383Z,13.60
2023-05-19T21:49:53.242Z,13.57
2023-05-19T21:52:57.245Z,13.58
2023-05-19T21:56:01.584Z,13.52
2023-05-19T21:59:05.785Z,13.50
2023-05-19T22:02:09.973Z,13.42
2023-05-19T22:05:13.965Z,13.35
2023-05-19T22:08:19.893Z,13.36
2023-05-19T22:11:23.905Z,13.27
2023-05-19T22:14:27.864Z,13.26
2023-05-19T22:17:31.938Z,13.18
2023-05-19T22:20:35.962Z,13.21
2023-05-19T22:23:39.906Z,13.18
2023-05-19T22:26:44.110Z,13.16
2023-05-19T22:29:47.934Z,13.19
2023-05-19T22:32:51.962Z,13.27
2023-05-19T22:35:56.165Z,13.21
2023-05-19T22:39:00.653Z,13.25
2023-05-19T22:42:05.329Z,13.27
2023-05-19T22:45:09.859Z,13.43
2023-05-19T22:48:13.985Z,13.26
2023-05-19T22:51:18.234Z,13.26
2023-05-19T22:54:22.349Z,13.23
2023-05-19T22:57:26.298Z,13.31
2023-05-19T23:00:30.263Z,13.24
2023-05-19T23:03:34.309Z,13.25
2023-05-19T23:06:38.089Z,13.15
2023-05-19T23:09:42.267Z,13.30
2023-05-19T23:12:46.358Z,13.18
2023-05-19T23:15:50.340Z,13.18
2023-05-19T23:18:54.243Z,13.15
2023-05-19T23:21:58.653Z,13.13
2023-05-19T23:25:07.430Z,13.22
2023-05-19T23:28:11.862Z,13.19
2023-05-19T23:31:16.065Z,13.08
2023-05-19T23:34:20.748Z,13.01
2023-05-19T23:37:24.879Z,13.03
2023-05-19T23:40:29.029Z,13.06
2023-05-19T23:43:33.166Z,12.96
2023-05-19T23:46:37.574Z,12.91
2023-05-19T23:49:41.693Z,12.88
2023-05-19T23:52:47.793Z,12.88
2023-05-19T23:55:51.767Z,12.88
2023-05-19T23:58:56.281Z,12.89
